createdAt,value
2017-11-09T00:01:59.186Z,130.00
2017-11-09T00:04:31.441Z,116.03
2017-11-09T00:06:58.078Z,125.97
2017-11-09T00:09:24.674Z,121.07
2017-11-09T00:11:51.299Z,138.23
2017-11-09T00:14:17.913Z,121.90
2017-11-09T00:16:44.547Z,123.60
2017-11-09T00:19:11.177Z,116.37
2017-11-09T00:21:37.795Z,117.37
2017-11-09T00:24:04.495Z,110.43
2017-11-09T00:26:31.126Z,125.50
2017-11-09T00:28:57.724Z,131.50
2017-11-09T00:31:24.355Z,116.97
2017-11-09T00:33:50.951Z,130.80
2017-11-09T00:36:17.593Z,127.93
2017-11-09T00:38:44.194Z,128.63
2017-11-09T00:41:10.801Z,110.80
2017-11-09T00:43:37.458Z,113.10
2017-11-09T00:46:04.073Z,124.80
2017-11-09T00:48:30.714Z,123.07
2017-11-09T00:50:57.346Z,117.53
2017-11-09T00:53:23.952Z,119.40
2017-11-09T00:55:50.625Z,125.43
2017-11-09T00:58:17.231Z,127.80
2017-11-09T01:00:43.863Z,122.53
2017-11-09T01:03:10.457Z,112.73
2017-11-09T01:05:37.090Z,128.00
2017-11-09T01:08:03.685Z,126.80
2017-11-09T01:10:30.372Z,119.40
2017-11-09T01:12:57.000Z,142.53
2017-11-09T01:15:23.618Z,128.90
2017-11-09T01:17:50.268Z,114.10
2017-11-09T01:20:16.914Z,124.23
2017-11-09T01:22:43.508Z,126.00
2017-11-09T01:25:10.299Z,127.23
2017-11-09T01:27:36.933Z,135.37
2017-11-09T01:30:03.566Z,130.63
2017-11-09T01:32:30.157Z,124.83
2017-11-09T01:34:56.789Z,130.07
2017-11-09T01:37:23.389Z,127.60
2017-11-09T01:39:50.016Z,122.47
2017-11-09T01:42:16.636Z,131.43
2017-11-09T01:44:43.254Z,127.40
2017-11-09T01:47:09.894Z,121.20
2017-11-09T01:49:36.729Z,128.07
2017-11-09T01:52:03.339Z,123.17
2017-11-09T01:54:29.966Z,130.60
2017-11-09T01:56:56.556Z,122.33
2017-11-09T01:59:23.255Z,133.57
2017-11-09T02:01:49.862Z,131.10
2017-11-09T02:04:16.464Z,121.37
2017-11-09T02:06:43.129Z,126.33
2017-11-09T02:09:09.720Z,120.97
2017-11-09T02:11:36.344Z,120.30
2017-11-09T02:14:02.965Z,129.00
2017-11-09T02:16:29.600Z,128.43
2017-11-09T02:18:56.206Z,129.57
2017-11-09T02:21:22.837Z,138.00
2017-11-09T02:23:49.470Z,150.83
2017-11-09T02:26:16.069Z,129.07
2017-11-09T02:28:42.786Z,123.40
2017-11-09T02:31:09.380Z,138.53
2017-11-09T02:33:36.307Z,127.13
2017-11-09T02:36:02.903Z,140.13
2017-11-09T02:38:29.526Z,128.97
2017-11-09T02:40:56.131Z,130.37
2017-11-09T02:43:22.739Z,132.90
2017-11-09T02:45:49.361Z,131.23
2017-11-09T02:48:15.948Z,126.60
2017-11-09T02:50:42.557Z,124.20
2017-11-09T02:53:09.176Z,123.03
2017-11-09T02:55:35.811Z,129.57
2017-11-09T02:58:02.567Z,132.50
2017-11-09T03:00:29.187Z,128.60
2017-11-09T03:02:55.825Z,121.20
2017-11-09T03:05:22.496Z,135.33
2017-11-09T03:07:49.109Z,126.20
2017-11-09T03:10:15.719Z,126.30
2017-11-09T03:12:42.335Z,120.70
2017-11-09T03:15:08.955Z,128.37
2017-11-09T03:17:35.801Z,123.73
2017-11-09T03:20:02.392Z,127.37
2017-11-09T03:22:29.007Z,123.27
2017-11-09T03:24:55.705Z,119.30
2017-11-09T03:27:22.309Z,126.03
2017-11-09T03:29:48.925Z,122.07
2017-11-09T03:32:15.553Z,117.10
2017-11-09T03:34:42.166Z,114.90
2017-11-09T03:37:08.809Z,122.30
2017-11-09T03:39:35.399Z,117.37
2017-11-09T03:42:02.006Z,132.00
2017-11-09T03:44:28.669Z,122.30
2017-11-09T03:46:55.313Z,129.57
2017-11-09T03:49:21.918Z,127.67
2017-11-09T03:51:48.537Z,133.23
2017-11-09T03:54:15.587Z,140.32
2017-11-09T03:56:42.232Z,125.27
2017-11-09T03:59:08.837Z,131.13
2017-11-09T04:01:35.445Z,133.43
2017-11-09T04:04:02.076Z,132.20
2017-11-09T04:06:28.667Z,130.53
2017-11-09T04:08:55.461Z,134.53
2017-11-09T04:11:22.062Z,134.33
2017-11-09T04:13:48.708Z,129.23
2017-11-09T04:16:15.309Z,135.93
2017-11-09T04:18:42.444Z,128.30
2017-11-09T04:21:09.051Z,132.33
2017-11-09T04:23:35.943Z,117.90
2017-11-09T04:26:02.575Z,123.33
2017-11-09T04:28:29.291Z,132.50
2017-11-09T04:30:55.897Z,132.33
2017-11-09T04:33:22.490Z,140.70
2017-11-09T04:35:49.117Z,129.37
2017-11-09T04:38:15.702Z,128.70
2017-11-09T04:40:42.414Z,128.03
2017-11-09T04:43:09.040Z,126.23
2017-11-09T04:45:35.634Z,135.47
2017-11-09T04:48:02.272Z,140.07
2017-11-09T04:50:28.891Z,129.77
2017-11-09T04:52:55.501Z,135.60
2017-11-09T04:55:22.129Z,130.27
2017-11-09T04:57:48.727Z,148.70
2017-11-09T05:00:15.360Z,129.03
2017-11-09T05:02:41.968Z,130.77
2017-11-09T05:05:09.221Z,160.03
2017-11-09T05:07:35.859Z,140.70
2017-11-09T05:10:02.452Z,135.63
2017-11-09T05:12:29.077Z,147.17
2017-11-09T05:14:55.669Z,131.20
2017-11-09T05:17:22.300Z,129.33
2017-11-09T05:19:48.935Z,141.37
2017-11-09T05:22:15.583Z,142.13
2017-11-09T05:24:42.197Z,140.20
2017-11-09T05:27:08.805Z,135.90
2017-11-09T05:29:35.502Z,129.90
2017-11-09T05:32:02.110Z,139.30
2017-11-09T05:34:28.756Z,126.87
2017-11-09T05:36:55.446Z,136.57
2017-11-09T05:39:22.104Z,142.60
2017-11-09T05:41:48.699Z,140.93
2017-11-09T05:44:15.301Z,140.13
2017-11-09T05:46:41.929Z,128.67
2017-11-09T05:49:09.018Z,135.83
2017-11-09T05:51:35.621Z,139.27
2017-11-09T05:54:02.234Z,131.17
2017-11-09T05:56:29.043Z,153.00
2017-11-09T05:58:55.651Z,135.00
2017-11-09T06:01:22.508Z,131.27
2017-11-09T06:03:49.118Z,134.77
2017-11-09T06:06:15.719Z,134.60
2017-11-09T06:08:42.343Z,138.80
2017-11-09T06:11:08.981Z,128.80
2017-11-09T06:13:35.599Z,122.73
2017-11-09T06:16:02.201Z,153.70
2017-11-09T06:18:28.933Z,143.47
2017-11-09T06:20:55.579Z,138.03
2017-11-09T06:23:22.367Z,138.50
2017-11-09T06:25:48.969Z,132.33
2017-11-09T06:28:15.601Z,137.37
2017-11-09T06:30:42.205Z,149.27
2017-11-09T06:33:08.836Z,132.17
2017-11-09T06:35:36.293Z,129.73
2017-11-09T06:38:02.965Z,136.93
2017-11-09T06:40:29.584Z,135.80
2017-11-09T06:42:56.265Z,127.03
2017-11-09T06:45:22.925Z,129.03
2017-11-09T06:47:49.527Z,128.13
2017-11-09T06:50:16.437Z,128.90
2017-11-09T06:52:43.048Z,131.57
2017-11-09T06:55:09.704Z,130.93
2017-11-09T06:57:36.300Z,120.37
2017-11-09T07:00:02.934Z,134.93
2017-11-09T07:02:29.571Z,129.20
2017-11-09T07:04:56.179Z,122.93
2017-11-09T07:07:22.823Z,131.83
2017-11-09T07:09:49.438Z,127.30
2017-11-09T07:12:16.085Z,127.47
2017-11-09T07:14:42.685Z,138.63
2017-11-09T07:17:09.349Z,129.67
2017-11-09T07:19:36.007Z,126.53
2017-11-09T07:22:02.736Z,119.40
2017-11-09T07:24:29.546Z,137.47
2017-11-09T07:26:56.195Z,130.63
2017-11-09T07:29:22.839Z,131.43
2017-11-09T07:31:49.447Z,127.27
2017-11-09T07:34:16.503Z,139.93
2017-11-09T07:36:43.412Z,134.13
2017-11-09T07:39:10.041Z,129.07
2017-11-09T07:41:36.849Z,125.97
2017-11-09T07:44:03.592Z,130.43
2017-11-09T07:46:30.261Z,122.00
2017-11-09T07:48:57.034Z,115.50
2017-11-09T07:51:23.729Z,116.57
2017-11-09T07:53:50.329Z,121.07
2017-11-09T07:56:16.976Z,128.67
2017-11-09T07:58:43.647Z,132.33
2017-11-09T08:01:10.345Z,124.07
2017-11-09T08:03:36.975Z,128.83
2017-11-09T08:06:03.628Z,122.77
2017-11-09T08:08:30.237Z,124.37
2017-11-09T08:10:56.932Z,128.37
2017-11-09T08:13:23.561Z,133.67
2017-11-09T08:15:50.146Z,112.37
2017-11-09T08:18:16.831Z,121.77
2017-11-09T08:20:43.485Z,128.47
2017-11-09T08:23:10.103Z,141.30
2017-11-09T08:25:38.737Z,123.33
2017-11-09T08:28:06.072Z,131.97
2017-11-09T08:30:36.222Z,127.73
2017-11-09T08:33:05.263Z,119.43
2017-11-09T08:35:32.196Z,120.23
2017-11-09T08:37:58.844Z,123.20
2017-11-09T08:40:25.494Z,131.17
2017-11-09T08:42:52.227Z,127.23
2017-11-09T08:45:19.140Z,118.90
2017-11-09T08:47:45.794Z,125.13
2017-11-09T08:50:12.669Z,116.67
2017-11-09T08:52:39.329Z,124.67
2017-11-09T08:55:05.992Z,122.13
2017-11-09T08:57:32.610Z,117.30
2017-11-09T08:59:59.280Z,124.17
2017-11-09T09:02:25.888Z,116.57
2017-11-09T09:04:52.539Z,122.87
2017-11-09T09:07:19.156Z,124.57
2017-11-09T09:09:45.829Z,122.60
2017-11-09T09:12:12.494Z,110.10
2017-11-09T09:14:39.257Z,118.07
2017-11-09T09:17:05.864Z,120.23
2017-11-09T09:19:32.547Z,112.20
2017-11-09T09:22:00.032Z,123.10
2017-11-09T09:24:28.302Z,128.13
2017-11-09T09:26:58.663Z,126.93
2017-11-09T09:29:27.971Z,110.60
2017-11-09T09:31:54.610Z,121.57
2017-11-09T09:34:30.749Z,105.43
2017-11-09T09:37:04.814Z,111.33
2017-11-09T09:39:34.236Z,110.03
2017-11-09T09:42:00.916Z,123.63
2017-11-09T09:44:27.575Z,117.40
2017-11-09T09:46:54.205Z,126.90
2017-11-09T09:49:20.821Z,118.93
2017-11-09T09:51:47.446Z,107.70
2017-11-09T09:54:14.116Z,98.33
2017-11-09T09:56:40.732Z,102.57
2017-11-09T09:59:07.365Z,108.90
2017-11-09T10:01:34.029Z,107.60
2017-11-09T10:04:00.670Z,114.40
2017-11-09T10:06:27.300Z,122.97
2017-11-09T10:08:53.911Z,109.90
2017-11-09T10:11:20.552Z,115.97
2017-11-09T10:13:47.169Z,108.23
2017-11-09T10:16:13.788Z,104.30
2017-11-09T10:18:40.452Z,111.03
2017-11-09T10:21:07.131Z,116.33
2017-11-09T10:23:34.339Z,106.40
2017-11-09T10:26:01.044Z,101.30
2017-11-09T10:28:27.628Z,102.93
2017-11-09T10:30:54.300Z,116.17
2017-11-09T10:33:20.908Z,107.30
2017-11-09T10:35:47.545Z,94.30
2017-11-09T10:38:14.182Z,97.80
2017-11-09T10:40:40.813Z,107.80
2017-11-09T10:43:07.443Z,110.73
2017-11-09T10:45:34.058Z,109.43
2017-11-09T10:48:00.692Z,106.43
2017-11-09T10:50:27.340Z,107.80
2017-11-09T10:52:54.029Z,107.97
2017-11-09T10:55:20.661Z,114.70
2017-11-09T10:57:47.327Z,109.97
2017-11-09T11:00:13.954Z,100.13
2017-11-09T11:02:40.597Z,99.50
2017-11-09T11:05:07.215Z,105.43
2017-11-09T11:07:33.878Z,102.57
2017-11-09T11:10:00.546Z,102.23
2017-11-09T11:12:27.152Z,102.07
2017-11-09T11:14:53.768Z,105.53
2017-11-09T11:17:20.395Z,106.03
2017-11-09T11:19:47.022Z,96.70
2017-11-09T11:22:13.629Z,105.50
2017-11-09T11:24:40.266Z,102.37
2017-11-09T11:27:06.931Z,103.87
2017-11-09T11:29:33.807Z,112.00
2017-11-09T11:32:00.408Z,100.13
2017-11-09T11:34:27.068Z,98.00
2017-11-09T11:36:53.692Z,86.30
2017-11-09T11:39:20.293Z,79.40
2017-11-09T11:41:47.650Z,73.82
2017-11-09T11:44:14.250Z,81.77
2017-11-09T11:46:41.034Z,67.70
2017-11-09T11:49:07.651Z,72.77
2017-11-09T11:51:34.263Z,71.37
2017-11-09T11:54:01.093Z,71.63
2017-11-09T11:56:27.737Z,70.07
2017-11-09T11:58:54.402Z,69.57
2017-11-09T12:01:21.028Z,72.67
2017-11-09T12:03:47.641Z,66.07
2017-11-09T12:06:14.272Z,70.90
2017-11-09T12:08:40.904Z,76.73
2017-11-09T12:11:07.512Z,68.70
2017-11-09T12:13:34.219Z,60.27
2017-11-09T12:16:01.044Z,62.67
2017-11-09T12:18:27.704Z,59.23
2017-11-09T12:20:54.299Z,58.93
2017-11-09T12:23:20.904Z,66.37
2017-11-09T12:25:47.527Z,60.97
2017-11-09T12:28:14.195Z,67.10
2017-11-09T12:30:40.798Z,65.00
2017-11-09T12:33:07.684Z,57.47
2017-11-09T12:35:34.344Z,72.93
2017-11-09T12:38:00.949Z,76.50
2017-11-09T12:40:27.643Z,71.63
2017-11-09T12:42:54.277Z,65.50
2017-11-09T12:45:20.896Z,58.80
2017-11-09T12:47:47.520Z,60.13
2017-11-09T12:50:14.216Z,64.97
2017-11-09T12:52:40.864Z,57.57
2017-11-09T12:55:07.495Z,60.30
2017-11-09T12:57:34.094Z,67.67
2017-11-09T13:00:00.826Z,67.60
2017-11-09T13:02:27.491Z,61.07
2017-11-09T13:04:54.258Z,56.67
2017-11-09T13:07:20.902Z,74.60
2017-11-09T13:09:47.558Z,63.73
2017-11-09T13:12:14.152Z,55.93
2017-11-09T13:14:40.770Z,68.23
2017-11-09T13:17:07.386Z,67.97
2017-11-09T13:19:34.068Z,70.43
2017-11-09T13:22:00.693Z,74.03
2017-11-09T13:24:27.306Z,63.13
2017-11-09T13:26:53.943Z,65.87
2017-11-09T13:29:20.543Z,65.17
2017-11-09T13:31:47.895Z,63.75
2017-11-09T13:34:17.154Z,66.43
2017-11-09T13:36:43.782Z,66.53
2017-11-09T13:39:10.424Z,62.77
2017-11-09T13:41:37.061Z,66.03
2017-11-09T13:44:03.766Z,68.17
2017-11-09T13:46:30.533Z,64.53
2017-11-09T13:48:57.159Z,70.53
2017-11-09T13:51:23.755Z,57.67
2017-11-09T13:53:50.396Z,63.13
2017-11-09T13:56:17.003Z,70.33
2017-11-09T13:58:43.679Z,72.57
2017-11-09T14:01:10.309Z,70.80
2017-11-09T14:03:36.949Z,70.10
2017-11-09T14:06:03.566Z,65.80
2017-11-09T14:08:30.178Z,62.87
2017-11-09T14:10:56.886Z,79.47
2017-11-09T14:13:23.490Z,65.23
2017-11-09T14:15:50.338Z,65.37
2017-11-09T14:18:17.007Z,74.63
2017-11-09T14:20:43.655Z,70.33
2017-11-09T15:06:49.169Z,62.80
2017-11-09T15:09:16.704Z,64.80
2017-11-09T15:11:43.312Z,70.53
2017-11-09T15:14:09.952Z,71.40
2017-11-09T15:16:36.606Z,70.03
2017-11-09T15:19:03.225Z,72.87
2017-11-09T15:21:29.914Z,74.67
2017-11-09T15:23:56.566Z,80.10
2017-11-09T15:26:23.265Z,75.90
2017-11-09T15:28:49.874Z,80.83
2017-11-09T15:31:16.514Z,64.63
2017-11-09T15:33:43.139Z,58.90
2017-11-09T15:36:09.787Z,79.33
2017-11-09T15:38:36.384Z,53.40
2017-11-09T15:41:03.040Z,65.97
2017-11-09T15:43:29.645Z,72.93
2017-11-09T15:45:56.814Z,71.77
2017-11-09T15:48:23.428Z,69.90
2017-11-09T15:50:50.018Z,63.93
2017-11-09T15:53:16.654Z,64.43
2017-11-09T15:55:43.258Z,65.73
2017-11-09T15:58:09.851Z,60.90
2017-11-09T16:00:36.804Z,64.17
2017-11-09T16:03:03.460Z,68.83
2017-11-09T16:05:30.044Z,60.73
2017-11-09T16:07:56.700Z,61.70
2017-11-09T16:10:23.359Z,59.77
2017-11-09T16:12:49.973Z,65.63
2017-11-09T16:15:16.668Z,69.67
2017-11-09T16:17:43.342Z,77.50
2017-11-09T16:20:09.980Z,65.40
2017-11-09T16:22:36.622Z,68.53
2017-11-09T16:25:03.266Z,69.17
2017-11-09T16:27:30.664Z,64.70
2017-11-09T16:29:57.279Z,67.87
2017-11-09T17:16:03.227Z,62.60
2017-11-09T17:18:33.737Z,57.03
2017-11-09T17:21:00.386Z,56.23
2017-11-09T17:23:27.017Z,44.03
2017-11-09T17:25:53.623Z,42.30
2017-11-09T17:28:20.279Z,48.33
2017-11-09T17:30:46.898Z,46.50
2017-11-09T17:33:13.499Z,52.60
2017-11-09T17:35:40.711Z,60.40
2017-11-09T17:38:07.333Z,50.93
2017-11-09T17:40:33.950Z,52.43
2017-11-09T17:43:00.611Z,45.23
2017-11-09T17:45:27.236Z,53.40
2017-11-09T17:47:53.873Z,62.23
2017-11-09T17:50:20.480Z,60.40
2017-11-09T17:52:50.030Z,63.33
2017-11-09T17:55:16.707Z,76.20
2017-11-09T17:57:43.317Z,73.00
2017-11-09T18:00:17.661Z,73.27
2017-11-09T18:02:44.367Z,77.00
2017-11-09T18:05:10.973Z,75.37
2017-11-09T18:07:37.602Z,64.17
2017-11-09T18:10:04.280Z,65.60
2017-11-09T18:12:31.025Z,67.87
2017-11-09T18:14:57.662Z,63.40
2017-11-09T18:17:24.287Z,70.63
2017-11-09T18:19:50.941Z,78.70
2017-11-09T18:22:19.474Z,67.13
2017-11-09T18:24:46.077Z,67.63
2017-11-09T18:27:12.831Z,74.53
2017-11-09T18:29:39.565Z,71.40
2017-11-09T18:32:06.269Z,71.90
2017-11-09T18:34:32.909Z,59.83
2017-11-09T18:36:59.538Z,64.10
2017-11-09T18:39:26.163Z,74.63
2017-11-09T18:41:52.794Z,69.97
2017-11-09T18:44:19.495Z,64.27
2017-11-09T18:46:46.176Z,60.97
2017-11-09T18:49:12.833Z,69.60
2017-11-09T18:51:39.595Z,71.03
2017-11-09T18:54:06.319Z,64.67
2017-11-09T18:56:33.145Z,63.63
2017-11-09T18:59:03.320Z,64.73
2017-11-09T19:01:29.968Z,59.67
2017-11-09T19:03:56.595Z,64.33
2017-11-09T19:06:23.257Z,74.90
2017-11-09T19:08:49.870Z,73.83
2017-11-09T19:11:16.509Z,77.13
2017-11-09T19:13:43.216Z,63.87
2017-11-09T19:16:09.814Z,73.20
2017-11-09T19:18:36.467Z,72.27
2017-11-09T19:21:03.078Z,54.67
2017-11-09T19:23:29.733Z,62.47
2017-11-09T19:25:56.343Z,69.07
2017-11-09T19:28:22.990Z,71.27
2017-11-09T19:30:49.613Z,57.33
2017-11-09T19:33:16.678Z,61.80
2017-11-09T19:35:43.367Z,56.83
2017-11-09T19:38:10.003Z,49.53
2017-11-09T19:40:36.597Z,60.93
2017-11-09T19:43:03.751Z,57.23
2017-11-09T19:45:30.399Z,43.47
2017-11-09T19:47:57.025Z,46.83
2017-11-09T19:50:23.684Z,49.17
2017-11-09T19:52:50.298Z,57.63
2017-11-09T19:55:16.908Z,49.37
2017-11-09T19:57:43.570Z,37.90
2017-11-09T20:02:43.221Z,39.30
2017-11-09T20:05:09.962Z,51.93
2017-11-09T20:07:36.637Z,41.67
2017-11-09T20:10:03.315Z,41.47
2017-11-09T20:12:29.920Z,35.67
2017-11-09T20:14:56.621Z,37.80
2017-11-09T20:17:23.245Z,56.93
2017-11-09T20:19:49.918Z,35.23
2017-11-09T20:22:16.561Z,39.87
2017-11-09T20:24:43.932Z,41.60
2017-11-09T20:27:10.899Z,39.40
2017-11-09T20:29:37.543Z,39.10
2017-11-09T20:32:04.215Z,41.50
2017-11-09T20:34:30.879Z,34.57
2017-11-09T20:36:57.757Z,42.97
2017-11-09T20:39:24.539Z,41.83
2017-11-09T20:41:51.224Z,41.23
2017-11-09T20:44:18.199Z,35.80
2017-11-09T20:46:45.160Z,39.40
2017-11-09T20:49:11.785Z,34.70
2017-11-09T20:51:38.972Z,37.63
2017-11-09T20:54:05.640Z,40.07
2017-11-09T20:56:32.638Z,36.20
2017-11-09T20:58:59.270Z,40.47
2017-11-09T21:01:25.926Z,39.07
2017-11-09T21:03:52.539Z,39.87
2017-11-09T21:06:19.256Z,32.23
2017-11-09T21:08:45.939Z,34.33
2017-11-09T21:11:12.586Z,31.40
2017-11-09T21:13:39.209Z,40.87
2017-11-09T21:16:05.841Z,32.90
2017-11-09T21:18:32.580Z,34.50
2017-11-09T21:20:59.259Z,34.53
2017-11-09T21:23:25.987Z,30.60
2017-11-09T21:25:52.793Z,29.83
2017-11-09T21:28:19.431Z,35.40
2017-11-09T21:30:46.078Z,32.47
2017-11-09T21:33:12.774Z,32.17
2017-11-09T21:35:39.391Z,34.10
2017-11-09T21:38:06.027Z,35.13
2017-11-09T21:40:32.638Z,33.53
2017-11-09T21:42:59.259Z,29.03
2017-11-09T21:45:25.875Z,29.27
2017-11-09T21:47:52.526Z,29.70
2017-11-09T21:50:19.116Z,31.80
2017-11-09T21:52:45.757Z,30.67
2017-11-09T21:55:13.088Z,33.83
2017-11-09T21:57:39.798Z,38.63
2017-11-09T22:00:06.398Z,30.77
2017-11-09T22:02:33.384Z,34.10
2017-11-09T22:05:00.302Z,28.47
2017-11-09T22:07:26.996Z,35.90
2017-11-09T22:09:53.618Z,31.13
2017-11-09T22:12:20.331Z,27.20
2017-11-09T22:14:46.937Z,35.47
2017-11-09T22:17:13.542Z,30.67
2017-11-09T22:19:40.163Z,29.60
2017-11-09T22:22:06.804Z,43.60
2017-11-09T22:24:33.454Z,30.67
2017-11-09T22:27:00.614Z,30.00
2017-11-09T22:29:27.231Z,30.00
2017-11-09T22:31:53.893Z,31.30
2017-11-09T22:34:20.549Z,27.13
2017-11-09T22:36:47.207Z,27.47
2017-11-09T22:39:13.829Z,30.00
2017-11-09T22:41:40.443Z,28.80
2017-11-09T22:44:07.070Z,29.10
2017-11-09T22:46:33.704Z,28.00
2017-11-09T22:49:00.302Z,31.07
2017-11-09T22:51:26.922Z,26.07
2017-11-09T22:53:53.560Z,29.60
2017-11-09T22:56:20.171Z,32.07
2017-11-09T22:58:47.089Z,31.80
2017-11-09T23:01:13.709Z,32.40
2017-11-09T23:03:40.330Z,32.23
2017-11-09T23:06:06.957Z,33.67
2017-11-09T23:08:33.555Z,26.87
2017-11-09T23:11:00.165Z,32.50
2017-11-09T23:13:26.761Z,36.17
2017-11-09T23:15:53.401Z,25.73
2017-11-09T23:18:20.066Z,27.33
2017-11-09T23:20:46.699Z,28.43
2017-11-09T23:23:13.283Z,25.47
2017-11-09T23:25:39.998Z,26.90
2017-11-09T23:28:06.612Z,28.43
2017-11-09T23:30:33.224Z,27.07
2017-11-09T23:32:59.856Z,30.13
2017-11-09T23:35:26.494Z,27.97
2017-11-09T23:37:53.110Z,31.80
2017-11-09T23:40:19.744Z,28.47
2017-11-09T23:42:46.394Z,27.47
2017-11-09T23:45:13.012Z,33.10
2017-11-09T23:47:39.658Z,32.93
2017-11-09T23:50:06.281Z,28.27
2017-11-09T23:52:32.887Z,29.13
2017-11-09T23:54:59.495Z,33.97
2017-11-09T23:57:26.105Z,32.57
2017-11-09T23:59:52.965Z,34.77
